createdAt,value
2022-08-28T00:00:02.322Z,6
2022-08-28T00:05:01.875Z,6
2022-08-28T00:10:01.450Z,6
2022-08-28T00:15:01.817Z,5
2022-08-28T00:20:02.241Z,6
2022-08-28T00:25:01.725Z,6
2022-08-28T00:30:02.189Z,4
2022-08-28T00:35:01.539Z,5
2022-08-28T00:40:02.038Z,6
2022-08-28T00:45:01.464Z,6
2022-08-28T00:50:01.799Z,4
2022-08-28T00:55:02.168Z,5
2022-08-28T01:00:01.536Z,5
2022-08-28T01:05:01.917Z,5
2022-08-28T01:10:01.303Z,6
2022-08-28T01:15:01.769Z,5
2022-08-28T01:20:02.312Z,5
2022-08-28T01:25:01.811Z,5
2022-08-28T01:30:02.279Z,5
2022-08-28T01:35:01.620Z,4
2022-08-28T01:40:02.077Z,4
2022-08-28T01:45:01.470Z,4
2022-08-28T01:50:01.830Z,3
2022-08-28T01:55:02.299Z,5
2022-08-28T02:00:01.571Z,5
2022-08-28T02:05:02.121Z,4
2022-08-28T02:10:01.498Z,5
2022-08-28T02:15:01.978Z,4
2022-08-28T02:20:01.424Z,4
2022-08-28T02:25:01.887Z,3
2022-08-28T02:30:02.254Z,7
2022-08-28T02:35:01.593Z,5
2022-08-28T02:40:02.064Z,4
2022-08-28T02:45:01.497Z,5
2022-08-28T02:50:01.961Z,5
2022-08-28T02:55:01.331Z,4
2022-08-28T03:00:01.698Z,4
2022-08-28T03:05:02.076Z,3
2022-08-28T03:10:01.632Z,3
2022-08-28T03:15:02.000Z,4
2022-08-28T03:20:01.414Z,3
2022-08-28T03:25:01.763Z,4
2022-08-28T03:30:02.233Z,4
2022-08-28T03:35:01.582Z,3
2022-08-28T03:40:02.008Z,4
2022-08-28T03:45:01.561Z,4
2022-08-28T03:50:01.920Z,6
2022-08-28T03:55:02.282Z,4
2022-08-28T04:00:01.620Z,3
2022-08-28T04:05:02.088Z,3
2022-08-28T04:10:01.652Z,4
2022-08-28T04:15:02.024Z,3
2022-08-28T04:20:01.455Z,5
2022-08-28T04:25:01.888Z,4
2022-08-28T04:30:01.585Z,3
2022-08-28T04:35:02.055Z,4
2022-08-28T04:40:01.447Z,3
2022-08-28T04:45:01.941Z,4
2022-08-28T04:50:01.352Z,3
2022-08-28T04:55:01.821Z,2
2022-08-28T05:00:02.324Z,4
2022-08-28T05:05:01.672Z,4
2022-08-28T05:10:02.087Z,4
2022-08-28T05:15:01.469Z,5
2022-08-28T05:20:02.011Z,2
2022-08-28T05:25:01.598Z,4
2022-08-28T05:30:02.394Z,3
2022-08-28T05:35:01.904Z,2
2022-08-28T05:40:02.518Z,3
2022-08-28T05:45:02.101Z,3
2022-08-28T05:50:01.582Z,2
2022-08-28T05:55:02.062Z,3
2022-08-28T06:00:01.422Z,3
2022-08-28T06:05:01.904Z,3
2022-08-28T06:10:02.409Z,4
2022-08-28T06:15:01.837Z,3
2022-08-28T06:20:02.264Z,2
2022-08-28T06:25:03.777Z,2
2022-08-28T06:30:01.971Z,3
2022-08-28T06:35:01.308Z,4
2022-08-28T06:40:01.875Z,3
2022-08-28T06:45:02.359Z,1
2022-08-28T06:50:01.696Z,3
2022-08-28T06:55:02.155Z,3
2022-08-28T07:00:01.728Z,3
2022-08-28T07:05:01.605Z,2
2022-08-28T07:10:01.981Z,2
2022-08-28T07:15:01.455Z,3
2022-08-28T07:20:01.989Z,3
2022-08-28T07:25:01.327Z,2
2022-08-28T07:30:01.677Z,4
2022-08-28T07:35:02.150Z,2
2022-08-28T07:40:01.861Z,3
2022-08-28T07:45:02.365Z,2
2022-08-28T07:50:01.830Z,2
2022-08-28T07:55:02.300Z,3
2022-08-28T08:00:01.781Z,2
2022-08-28T08:05:02.133Z,2
2022-08-28T08:10:01.631Z,4
2022-08-28T08:15:02.010Z,2
2022-08-28T08:20:01.449Z,2
2022-08-28T08:25:01.788Z,1
2022-08-28T08:30:02.135Z,2
2022-08-28T08:35:01.475Z,2
2022-08-28T08:40:02.068Z,2
2022-08-28T08:45:01.508Z,3
2022-08-28T08:50:01.972Z,2
2022-08-28T08:55:01.447Z,2
2022-08-28T09:00:01.923Z,2
2022-08-28T09:05:02.290Z,1
2022-08-28T09:10:01.801Z,5
2022-08-28T09:15:02.290Z,5
2022-08-28T09:20:01.842Z,3
2022-08-28T09:25:02.326Z,2
2022-08-28T09:30:07.670Z,2
2022-08-28T09:35:01.859Z,2
2022-08-28T09:40:02.317Z,2
2022-08-28T09:45:01.821Z,3
2022-08-28T09:50:01.791Z,1
2022-08-28T09:55:01.618Z,3
2022-08-28T10:00:01.969Z,2
2022-08-28T10:05:01.449Z,2
2022-08-28T10:10:01.845Z,2
2022-08-28T10:15:01.828Z,2
2022-08-28T10:20:01.590Z,1
2022-08-28T10:25:02.054Z,2
2022-08-28T10:30:06.738Z,3
2022-08-28T10:35:01.397Z,3
2022-08-28T10:40:01.803Z,3
2022-08-28T10:45:01.916Z,1
2022-08-28T10:50:02.329Z,2
2022-08-28T10:55:01.796Z,2
2022-08-28T11:00:02.233Z,3
2022-08-28T11:05:01.591Z,1
2022-08-28T11:10:01.954Z,2
2022-08-28T11:15:01.332Z,2
2022-08-28T11:20:01.749Z,4
2022-08-28T11:25:07.669Z,1
2022-08-28T11:30:02.041Z,1
2022-08-28T11:35:01.532Z,1
2022-08-28T11:40:02.073Z,3
2022-08-28T11:45:01.560Z,2
2022-08-28T11:50:01.885Z,2
2022-08-28T11:55:02.347Z,1
2022-08-28T12:00:02.072Z,1
2022-08-28T12:05:01.550Z,2
2022-08-28T12:10:05.113Z,1
2022-08-28T12:15:01.871Z,1
2022-08-28T12:20:01.301Z,1
2022-08-28T12:25:01.727Z,1
2022-08-28T12:30:02.201Z,1
2022-08-28T12:35:01.666Z,2
2022-08-28T12:40:02.082Z,1
2022-08-28T12:45:01.465Z,2
2022-08-28T12:50:01.800Z,2
2022-08-28T12:55:02.149Z,0
2022-08-28T13:00:01.511Z,2
2022-08-28T13:05:01.982Z,2
2022-08-28T13:10:01.362Z,1
2022-08-28T13:15:01.855Z,1
2022-08-28T13:20:02.402Z,2
2022-08-28T13:25:01.877Z,0
2022-08-28T13:30:02.238Z,2
2022-08-28T13:35:01.633Z,1
2022-08-28T13:40:06.779Z,1
2022-08-28T13:45:01.722Z,0
2022-08-28T13:50:02.195Z,1
2022-08-28T13:55:01.551Z,1
2022-08-28T14:00:02.051Z,3
2022-08-28T14:05:01.532Z,4
2022-08-28T14:10:02.047Z,2
2022-08-28T14:15:01.909Z,1
2022-08-28T14:20:01.335Z,2
2022-08-28T14:25:01.805Z,1
2022-08-28T14:30:02.165Z,1
2022-08-28T14:35:01.630Z,2
2022-08-28T14:40:02.236Z,1
2022-08-28T14:45:01.743Z,1
2022-08-28T14:50:02.267Z,2
2022-08-28T14:55:01.796Z,2
2022-08-28T15:00:02.275Z,2
2022-08-28T15:05:01.640Z,1
2022-08-28T15:10:02.163Z,1
2022-08-28T15:15:01.518Z,1
2022-08-28T15:20:02.063Z,2
2022-08-28T15:25:01.405Z,2
2022-08-28T15:30:01.876Z,1
2022-08-28T15:35:02.340Z,2
2022-08-28T15:40:01.949Z,1
2022-08-28T15:45:01.921Z,0
2022-08-28T15:50:02.267Z,1
2022-08-28T15:55:02.038Z,2
2022-08-28T16:00:01.394Z,2
2022-08-28T16:05:01.745Z,0
2022-08-28T16:10:02.119Z,1
2022-08-28T16:15:01.605Z,2
2022-08-28T16:20:02.035Z,1
2022-08-28T16:25:01.380Z,2
2022-08-28T16:30:01.864Z,0
2022-08-28T16:35:02.219Z,2
2022-08-28T16:40:01.687Z,2
2022-08-28T16:45:02.150Z,0
2022-08-28T16:50:01.627Z,2
2022-08-28T16:55:02.094Z,2
2022-08-28T17:00:01.591Z,1
2022-08-28T17:05:01.973Z,0
2022-08-28T17:10:01.499Z,0
2022-08-28T17:15:01.972Z,1
2022-08-28T17:20:01.538Z,2
2022-08-28T17:25:02.012Z,2
2022-08-28T17:30:01.500Z,0
2022-08-28T17:35:01.972Z,1
2022-08-28T17:40:01.533Z,1
2022-08-28T17:45:01.914Z,1
2022-08-28T17:50:02.263Z,2
2022-08-28T17:55:01.597Z,0
2022-08-28T18:00:01.952Z,2
2022-08-28T18:05:01.840Z,3
2022-08-28T18:10:02.091Z,1
2022-08-28T18:15:01.462Z,1
2022-08-28T18:20:02.025Z,2
2022-08-28T18:25:01.382Z,2
2022-08-28T18:30:01.847Z,2
2022-08-28T18:35:02.311Z,1
2022-08-28T18:40:01.889Z,2
2022-08-28T18:45:01.542Z,1
2022-08-28T18:50:02.964Z,1
2022-08-28T18:55:01.761Z,2
2022-08-28T19:00:01.613Z,2
2022-08-28T19:05:01.957Z,2
2022-08-28T19:10:01.351Z,2
2022-08-28T19:15:01.831Z,2
2022-08-28T19:20:02.400Z,2
2022-08-28T19:25:01.741Z,0
2022-08-28T19:30:02.209Z,2
2022-08-28T19:35:01.678Z,1
2022-08-28T19:40:02.225Z,1
2022-08-28T19:45:01.739Z,1
2022-08-28T19:50:02.091Z,2
2022-08-28T19:55:01.440Z,3
2022-08-28T20:00:01.810Z,1
2022-08-28T20:05:02.293Z,1
2022-08-28T20:10:01.796Z,3
2022-08-28T20:15:03.591Z,3
2022-08-28T20:20:03.040Z,2
2022-08-28T20:25:01.968Z,1
2022-08-28T20:30:07.169Z,1
2022-08-28T20:35:01.711Z,1
2022-08-28T20:40:05.428Z,1
2022-08-28T20:45:02.363Z,2
2022-08-28T20:50:01.840Z,1
2022-08-28T20:55:02.188Z,1
2022-08-28T21:00:05.525Z,2
2022-08-28T21:05:02.278Z,2
2022-08-28T21:10:05.828Z,3
2022-08-28T21:15:02.147Z,2
2022-08-28T21:20:02.787Z,1
2022-08-28T21:25:01.691Z,0
2022-08-28T21:30:02.168Z,1
2022-08-28T21:35:01.641Z,3
2022-08-28T21:40:02.216Z,0
2022-08-28T21:45:01.588Z,3
2022-08-28T21:50:01.933Z,1
2022-08-28T21:55:02.401Z,2
2022-08-28T22:00:01.942Z,1
2022-08-28T22:05:02.100Z,1
2022-08-28T22:10:01.477Z,2
2022-08-28T22:15:01.861Z,0
2022-08-28T22:20:02.326Z,1
2022-08-28T22:25:01.691Z,2
2022-08-28T22:30:02.028Z,3
2022-08-28T22:35:01.404Z,3
2022-08-28T22:40:01.944Z,3
2022-08-28T22:45:01.717Z,5
2022-08-28T22:50:02.061Z,5
2022-08-28T22:55:01.482Z,4
2022-08-28T23:00:01.314Z,5
2022-08-28T23:05:01.670Z,5
2022-08-28T23:10:02.046Z,5
2022-08-28T23:15:01.530Z,6
2022-08-28T23:20:01.947Z,5
2022-08-28T23:25:02.291Z,3
2022-08-28T23:30:01.646Z,3
2022-08-28T23:35:01.999Z,5
2022-08-28T23:40:01.652Z,5
2022-08-28T23:45:02.015Z,5
2022-08-28T23:50:01.506Z,1
2022-08-28T23:55:02.068Z,6
